Main page
METAR-TAF:

METAR-TAF

Airports :

Nakhchivan International Airport

Nakhchivan, Azerbaijan

latitude: 39-11-19N, longitude: 045-27-30E, elevation: 873 m

Current weather observation

The report was made 29 minutes ago, at 04:30 UTC
Wind 10 kt from the East
Temperature 3°C
Humidity 60%
Pressure 1013 hPa
Visibility 10 km or more
Few clouds at a height of 10000 ft

METAR: UBBN 160430Z 08010KT 9999 FEW100 03/M04 Q1013 R14R/CLRD// NOSIG RMK MT OP QFE685

Time: 08:59 (04:59 UTC)

Forecast

The report was made 5 hours and 58 minutes ago, at 23:01 UTC
Forecast valid from 16 at 00 UTC to 16 at 24 UTC
Wind 8 kt from the East/Southeast
Visibility: 8000 m
Few clouds at a height of 5000 ft
Broken clouds at a height of 9000 ft
Temporary
from 16 at 00 UTC to 16 at 08 UTC
Wind 10 kt from the East/Northeast
Visibility: 4000 m
Scattered clouds at a height of 3000 ft
Broken clouds at a height of 7000 ft
mist

TAF: UBBN 152301Z 1600/1624 11008KT 8000 FEW050 BKN090 TX09/1612Z TNM03/1603Z TEMPO 1600/1608 06010KT 4000 BR SCT030 BKN070

Weather observations and forecasts of more than 4000 airports (METAR and TAF reports).

The available stations are represented by yellow and red dots on the map.

Hover mouse over dot to see the name of the station.

Then click to see weather observations and forecasts.

To change the map : click on the green buttons with a black cross to zoom in, on the green button with a dash to zoom out, or on the green arrows for adjacent maps.


METAR-TAF: